Time;durP1;ratioP1;P1;durP2;ratioP2;P2;SDS_P1;SDS_P2;PMS_P1;PMS_P2;Temp;Humidity;BMP_temperature;BMP_pressure;BME280_temperature;BME280_humidity;BME280_pressure;Samples;Min_cycle;Max_cycle;Signal;HPM_P1;HPM_P2
2023/04/25 00:00:08;;;;;;;0.20;0.20;;;;;;;10.76;88.67;92710.03;516021;28;794;-63
2023/04/25 00:00:23;;;;;;;0.28;0.28;;;;;;;10.75;88.77;92702.28;515790;28;1349;-63
2023/04/25 00:00:38;;;;;;;0.40;0.40;;;;;;;10.76;89.25;92706.53;515893;28;856;-63
2023/04/25 00:00:54;;;;;;;0.70;0.70;;;;;;;10.73;89.39;92711.16;515857;28;869;-63
2023/04/25 00:01:13;;;;;;;0.60;0.60;;;;;;;10.74;89.35;92715.38;515837;28;952;-63
2023/04/25 00:01:29;;;;;;;0.40;0.40;;;;;;;10.75;89.52;92711.31;515852;28;855;-63
2023/04/25 00:01:44;;;;;;;0.50;0.50;;;;;;;10.75;89.58;92705.03;515857;28;850;-64
2023/04/25 00:02:00;;;;;;;0.30;0.30;;;;;;;10.71;89.94;92708.22;515879;28;797;-63
2023/04/25 00:02:15;;;;;;;0.20;0.20;;;;;;;10.73;89.90;92702.88;515833;28;891;-63
2023/04/25 00:02:32;;;;;;;0.20;0.20;;;;;;;10.76;89.91;92714.81;516044;28;889;-63
2023/04/25 00:02:48;;;;;;;0.20;0.20;;;;;;;10.76;89.91;92703.75;516081;28;864;-63
2023/04/25 00:03:05;;;;;;;0.50;0.50;;;;;;;10.79;89.90;92708.13;515996;28;813;-63
2023/04/25 00:03:20;;;;;;;0.50;0.50;;;;;;;10.82;90.13;92707.00;516000;28;857;-63
2023/04/25 00:03:36;;;;;;;0.40;0.40;;;;;;;10.82;89.85;92716.03;516002;28;815;-63
2023/04/25 00:03:51;;;;;;;5.80;0.70;;;;;;;10.83;89.97;92709.19;516008;28;841;-63
2023/04/25 00:04:07;;;;;;;5.70;0.50;;;;;;;10.81;90.04;92717.31;516001;28;836;-63
2023/04/25 00:04:22;;;;;;;0.20;0.20;;;;;;;10.78;90.15;92710.19;516019;28;935;-63
2023/04/25 00:04:37;;;;;;;0.20;0.20;;;;;;;10.77;90.15;92714.22;516060;28;817;-63
2023/04/25 00:04:54;;;;;;;0.20;0.20;;;;;;;10.74;90.17;92711.88;515943;28;1026;-63
2023/04/25 00:05:10;;;;;;;0.20;0.20;;;;;;;10.74;90.18;92709.84;515948;28;887;-63
2023/04/25 00:05:26;;;;;;;0.20;0.20;;;;;;;10.72;90.31;92714.47;515990;28;922;-64
2023/04/25 00:05:41;;;;;;;0.40;0.40;;;;;;;10.65;89.93;92711.19;515972;28;1696;-63
2023/04/25 00:06:01;;;;;;;0.40;0.40;;;;;;;10.60;89.91;92714.22;516007;28;892;-64
2023/04/25 00:06:17;;;;;;;0.20;0.20;;;;;;;10.61;90.42;92708.13;516027;28;974;-63
2023/04/25 00:06:35;;;;;;;0.20;0.20;;;;;;;10.62;90.24;92715.13;516000;28;866;-63
2023/04/25 00:06:52;;;;;;;0.22;0.22;;;;;;;10.65;90.45;92711.19;516020;28;852;-63
2023/04/25 00:07:07;;;;;;;0.40;0.40;;;;;;;10.68;90.18;92712.09;515788;28;872;-63
2023/04/25 00:07:22;;;;;;;0.23;0.23;;;;;;;10.65;90.21;92713.97;515805;28;872;-63
2023/04/25 00:07:38;;;;;;;0.17;0.17;;;;;;;10.68;90.14;92712.84;515856;28;857;-63
2023/04/25 00:07:54;;;;;;;0.20;0.20;;;;;;;10.72;90.01;92711.72;515837;28;838;-64
2023/04/25 00:08:09;;;;;;;0.20;0.20;;;;;;;10.75;89.84;92708.53;513709;28;931;-63
2023/04/25 00:08:24;;;;;;;0.20;0.20;;;;;;;10.77;89.86;92710.72;513912;28;818;-64
2023/04/25 00:08:40;;;;;;;0.30;0.30;;;;;;;10.79;89.82;92717.16;513850;28;954;-64
2023/04/25 00:08:56;;;;;;;0.30;0.30;;;;;;;10.80;89.75;92704.81;514295;28;892;-64
2023/04/25 00:09:11;;;;;;;0.50;0.50;;;;;;;10.83;89.83;92714.00;515848;28;861;-64
2023/04/25 00:09:27;;;;;;;0.55;0.55;;;;;;;10.72;90.01;92708.97;515820;28;873;-63
2023/04/25 00:09:43;;;;;;;0.30;0.30;;;;;;;10.72;90.05;92714.47;515801;28;943;-64
2023/04/25 00:09:58;;;;;;;0.20;0.20;;;;;;;10.66;90.44;92714.69;515749;28;1584;-63
2023/04/25 00:10:14;;;;;;;0.40;0.40;;;;;;;10.63;90.47;92713.81;513796;28;841;-63
2023/04/25 00:10:29;;;;;;;0.50;0.50;;;;;;;10.64;90.57;92714.53;511820;29;846;-63
2023/04/25 00:10:45;;;;;;;0.50;0.50;;;;;;;10.64;90.50;92711.78;511842;29;853;-63
2023/04/25 00:11:00;;;;;;;0.40;0.40;;;;;;;10.64;90.28;92709.75;511838;29;1636;-63
2023/04/25 00:11:16;;;;;;;0.20;0.20;;;;;;;10.61;90.12;92712.94;511896;29;1592;-63
2023/04/25 00:11:31;;;;;;;0.20;0.20;;;;;;;10.57;90.30;92716.06;512138;28;955;-64
2023/04/25 00:11:46;;;;;;;0.20;0.20;;;;;;;10.54;90.45;92710.97;513884;28;834;-64
2023/04/25 00:12:02;;;;;;;0.20;0.20;;;;;;;10.56;90.73;92717.38;514003;28;1657;-64
2023/04/25 00:12:17;;;;;;;0.20;0.20;;;;;;;10.57;90.58;92712.56;515891;28;817;-64
2023/04/25 00:12:33;;;;;;;0.20;0.20;;;;;;;10.61;90.75;92710.16;515987;28;940;-64
2023/04/25 00:12:49;;;;;;;0.20;0.20;;;;;;;10.63;90.95;92713.81;516037;28;855;-64
2023/04/25 00:13:04;;;;;;;0.20;0.20;;;;;;;10.65;90.71;92711.19;516025;28;810;-64
2023/04/25 00:13:20;;;;;;;0.20;0.20;;;;;;;10.64;90.84;92715.28;515944;28;1085;-63
2023/04/25 00:13:35;;;;;;;4.40;1.00;;;;;;;10.61;91.11;92710.88;516036;28;841;-63
2023/04/25 00:13:51;;;;;;;4.70;1.20;;;;;;;10.63;90.94;92713.09;515942;28;873;-64
2023/04/25 00:14:06;;;;;;;0.40;0.40;;;;;;;10.65;91.27;92713.25;515923;28;868;-64
2023/04/25 00:14:22;;;;;;;0.20;0.20;;;;;;;10.68;91.21;92708.63;516033;28;868;-64
2023/04/25 00:14:38;;;;;;;0.30;0.30;;;;;;;10.64;90.91;92707.00;516077;28;887;-64
2023/04/25 00:14:56;;;;;;;0.20;0.20;;;;;;;10.66;91.28;92707.16;516088;28;808;-64
2023/04/25 00:15:12;;;;;;;0.13;0.13;;;;;;;10.64;90.67;92709.75;515994;28;1066;-63
2023/04/25 00:15:27;;;;;;;0.20;0.20;;;;;;;10.58;90.79;92711.28;515957;28;853;-64
2023/04/25 00:15:43;;;;;;;0.20;0.20;;;;;;;10.49;90.71;92709.91;516006;28;860;-64
2023/04/25 00:15:58;;;;;;;0.10;0.10;;;;;;;10.43;91.20;92716.94;516014;28;994;-64
2023/04/25 00:16:15;;;;;;;0.20;0.20;;;;;;;10.40;91.49;92718.81;516009;28;838;-64
2023/04/25 00:16:33;;;;;;;0.30;0.30;;;;;;;10.20;91.57;92683.31;515938;28;916;-63
2023/04/25 00:16:51;;;;;;;0.30;0.30;;;;;;;10.40;91.70;92709.78;516058;28;900;-63
2023/04/25 00:17:06;;;;;;;0.25;0.25;;;;;;;10.40;91.54;92712.56;515998;28;887;-63
2023/04/25 00:17:24;;;;;;;0.20;0.20;;;;;;;10.38;91.64;92712.38;515973;28;1980;-63
2023/04/25 00:17:39;;;;;;;0.20;0.20;;;;;;;10.39;92.00;92716.63;515906;28;888;-64
2023/04/25 00:17:55;;;;;;;0.20;0.20;;;;;;;10.36;92.07;92710.19;516071;28;802;-63
2023/04/25 00:18:11;;;;;;;0.20;0.20;;;;;;;10.33;92.18;92714.06;515833;28;902;-64
2023/04/25 00:18:29;;;;;;;0.20;0.20;;;;;;;10.35;92.40;92708.72;515977;28;963;-64
2023/04/25 00:18:46;;;;;;;0.10;0.10;;;;;;;10.37;92.50;92711.66;515994;28;880;-64
2023/04/25 00:19:02;;;;;;;0.20;0.20;;;;;;;10.33;92.93;92708.56;515950;28;1053;-64
2023/04/25 00:19:17;;;;;;;0.20;0.20;;;;;;;10.26;93.12;92712.13;515962;28;834;-64
2023/04/25 00:19:34;;;;;;;0.30;0.30;;;;;;;10.27;93.44;92713.59;515973;28;821;-64
2023/04/25 00:19:50;;;;;;;0.40;0.40;;;;;;;10.26;93.21;92714.91;515903;28;950;-64
2023/04/25 00:20:08;;;;;;;0.40;0.40;;;;;;;10.26;93.33;92714.16;515838;28;1573;-64
2023/04/25 00:20:24;;;;;;;0.57;0.43;;;;;;;10.22;93.30;92711.78;516042;28;895;-64
2023/04/25 00:20:40;;;;;;;0.70;0.50;;;;;;;10.19;93.58;92710.16;515971;28;790;-64
2023/04/25 00:20:55;;;;;;;0.20;0.20;;;;;;;10.17;93.57;92712.75;515970;28;829;-64
2023/04/25 00:21:11;;;;;;;0.25;0.25;;;;;;;10.15;94.14;92714.63;515994;28;842;-64
2023/04/25 00:21:28;;;;;;;0.30;0.30;;;;;;;10.14;94.31;92713.13;515936;28;807;-64
2023/04/25 00:21:46;;;;;;;0.13;0.13;;;;;;;10.13;94.45;92712.44;515938;28;897;-65
2023/04/25 00:22:01;;;;;;;0.30;0.30;;;;;;;10.07;95.01;92714.63;515832;28;892;-65
2023/04/25 00:22:17;;;;;;;0.30;0.30;;;;;;;10.03;95.43;92710.81;515992;28;884;-65
2023/04/25 00:22:34;;;;;;;0.30;0.30;;;;;;;10.08;95.54;92715.38;515897;28;974;-65
2023/04/25 00:22:49;;;;;;;0.20;0.20;;;;;;;10.07;95.80;92705.66;516039;28;821;-65
2023/04/25 00:23:05;;;;;;;0.40;0.40;;;;;;;10.09;95.92;92714.09;516020;28;931;-65
2023/04/25 00:23:20;;;;;;;0.80;0.63;;;;;;;10.11;95.97;92712.25;515972;28;829;-65
2023/04/25 00:23:36;;;;;;;0.60;0.50;;;;;;;10.13;96.10;92708.94;516012;28;831;-65
2023/04/25 00:23:55;;;;;;;0.20;0.20;;;;;;;10.12;95.98;92708.19;517821;28;930;-65
2023/04/25 00:24:10;;;;;;;0.20;0.20;;;;;;;10.14;96.02;92716.63;517700;28;943;-64
2023/04/25 00:24:26;;;;;;;0.20;0.20;;;;;;;10.10;96.10;92710.75;517845;28;837;-64
2023/04/25 00:24:41;;;;;;;0.17;0.17;;;;;;;10.12;95.89;92710.22;517853;28;848;-64
2023/04/25 00:24:59;;;;;;;0.20;0.20;;;;;;;10.14;95.73;92713.88;517806;28;1049;-64
2023/04/25 00:25:15;;;;;;;0.28;0.28;;;;;;;10.16;95.36;92705.75;515759;28;865;-63
2023/04/25 00:25:30;;;;;;;0.30;0.30;;;;;;;10.15;95.29;92707.06;515785;28;892;-64
2023/04/25 00:25:47;;;;;;;0.20;0.20;;;;;;;10.10;95.05;92707.25;515830;28;868;-64
2023/04/25 00:26:03;;;;;;;0.30;0.30;;;;;;;10.11;95.35;92706.00;515770;28;916;-64
2023/04/25 00:26:18;;;;;;;0.40;0.40;;;;;;;10.12;95.17;92710.94;515806;28;857;-64
2023/04/25 00:26:35;;;;;;;0.28;0.28;;;;;;;10.12;95.16;92713.72;515899;28;861;-64
2023/04/25 00:26:50;;;;;;;0.30;0.30;;;;;;;10.12;95.12;92710.22;515729;28;951;-64
2023/04/25 00:27:06;;;;;;;0.30;0.30;;;;;;;10.10;95.33;92713.50;515912;28;884;-64
2023/04/25 00:27:21;;;;;;;0.20;0.20;;;;;;;10.11;95.55;92715.03;515950;28;802;-64
2023/04/25 00:27:38;;;;;;;0.20;0.20;;;;;;;10.04;95.52;92709.53;515940;28;953;-63
2023/04/25 00:27:54;;;;;;;0.30;0.30;;;;;;;10.07;95.81;92708.41;516059;28;868;-64
2023/04/25 00:28:10;;;;;;;0.30;0.30;;;;;;;10.08;96.13;92716.09;515818;28;842;-64
2023/04/25 00:28:26;;;;;;;0.38;0.38;;;;;;;10.05;96.19;92711.69;515948;28;904;-64
2023/04/25 00:28:41;;;;;;;0.30;0.30;;;;;;;10.06;96.20;92713.19;515942;28;1538;-64
2023/04/25 00:28:56;;;;;;;0.20;0.20;;;;;;;10.06;96.17;92706.94;515944;28;844;-64
2023/04/25 00:29:12;;;;;;;0.90;0.90;;;;;;;10.04;96.35;92715.78;515973;28;928;-64
2023/04/25 00:29:27;;;;;;;0.90;0.90;;;;;;;10.05;96.40;92705.47;515939;28;817;-64
2023/04/25 00:29:43;;;;;;;0.20;0.20;;;;;;;10.08;96.43;92709.84;515957;28;828;-65
2023/04/25 00:29:58;;;;;;;0.30;0.30;;;;;;;10.10;96.36;92707.25;515929;28;785;-63
2023/04/25 00:30:14;;;;;;;0.30;0.30;;;;;;;10.12;96.72;92718.47;515841;28;833;-64
2023/04/25 00:30:29;;;;;;;0.20;0.20;;;;;;;10.13;96.69;92717.94;515903;28;876;-64
2023/04/25 00:30:45;;;;;;;0.30;0.30;;;;;;;10.11;96.47;92709.50;515709;28;1139;-64
2023/04/25 00:31:00;;;;;;;0.20;0.20;;;;;;;10.11;96.47;92712.25;515957;28;845;-64
2023/04/25 00:31:15;;;;;;;0.20;0.20;;;;;;;10.08;96.81;92718.13;515951;28;865;-64
2023/04/25 00:31:31;;;;;;;0.20;0.20;;;;;;;10.08;97.01;92713.34;515890;28;923;-64
2023/04/25 00:31:46;;;;;;;0.20;0.20;;;;;;;10.09;96.84;92708.56;515949;28;916;-64
2023/04/25 00:32:02;;;;;;;0.20;0.20;;;;;;;10.06;97.14;92709.69;515876;28;809;-65
2023/04/25 00:32:17;;;;;;;1.50;0.70;;;;;;;10.03;97.08;92710.81;515801;28;880;-64
2023/04/25 00:32:33;;;;;;;1.53;0.70;;;;;;;10.10;96.99;92712.78;515671;28;1034;-63
2023/04/25 00:32:48;;;;;;;0.50;0.50;;;;;;;10.12;97.01;92710.22;515727;28;765;-64
2023/04/25 00:33:04;;;;;;;0.50;0.50;;;;;;;10.11;96.87;92711.53;515751;28;849;-63
2023/04/25 00:33:19;;;;;;;0.30;0.30;;;;;;;10.12;96.45;92705.44;515873;28;1666;-64
2023/04/25 00:33:35;;;;;;;0.30;0.30;;;;;;;10.12;96.39;92710.22;516028;28;807;-64
2023/04/25 00:33:50;;;;;;;0.15;0.15;;;;;;;10.16;96.59;92710.53;515942;28;876;-64
2023/04/25 00:34:06;;;;;;;0.20;0.20;;;;;;;10.08;96.32;92699.56;515872;28;1492;-64
2023/04/25 00:34:22;;;;;;;0.20;0.20;;;;;;;10.14;96.58;92707.63;515940;28;914;-64
2023/04/25 00:34:37;;;;;;;0.30;0.30;;;;;;;10.12;96.69;92710.22;515897;28;973;-64
2023/04/25 00:34:53;;;;;;;0.50;0.50;;;;;;;10.09;96.69;92711.31;516029;28;865;-64
2023/04/25 00:35:09;;;;;;;0.47;0.47;;;;;;;10.09;96.53;92714.09;515890;28;856;-64
2023/04/25 00:35:24;;;;;;;0.40;0.40;;;;;;;10.06;96.59;92712.44;516033;28;904;-63
2023/04/25 00:35:40;;;;;;;0.70;0.70;;;;;;;9.94;96.43;92695.59;515977;28;803;-64
2023/04/25 00:35:55;;;;;;;0.52;0.52;;;;;;;10.12;96.46;92715.72;516041;28;797;-64
2023/04/25 00:36:11;;;;;;;0.20;0.20;;;;;;;10.14;96.57;92716.63;515654;28;856;-64
2023/04/25 00:36:27;;;;;;;0.20;0.20;;;;;;;10.18;96.38;92714.22;515785;28;814;-64
2023/04/25 00:36:42;;;;;;;0.25;0.25;;;;;;;10.18;96.26;92713.50;515857;28;1184;-64
2023/04/25 00:36:58;;;;;;;0.20;0.20;;;;;;;10.21;96.29;92712.34;515708;28;1123;-64
2023/04/25 00:37:13;;;;;;;0.60;0.60;;;;;;;10.10;95.82;92687.94;515866;28;793;-64
2023/04/25 00:37:29;;;;;;;0.60;0.60;;;;;;;10.24;95.88;92706.47;515681;28;1985;-64
2023/04/25 00:37:45;;;;;;;0.20;0.20;;;;;;;10.27;95.33;92708.06;515789;28;888;-64
2023/04/25 00:38:00;;;;;;;0.70;0.70;;;;;;;10.24;95.39;92700.94;515792;28;813;-64
2023/04/25 00:38:16;;;;;;;0.80;0.80;;;;;;;10.30;95.46;92708.97;515791;28;877;-64
2023/04/25 00:38:31;;;;;;;0.20;0.20;;;;;;;10.24;95.36;92700.94;515758;28;1003;-64
2023/04/25 00:38:47;;;;;;;0.30;0.30;;;;;;;10.25;95.29;92707.91;515843;28;880;-64
2023/04/25 00:39:04;;;;;;;0.57;0.57;;;;;;;10.19;95.13;92706.66;515856;28;927;-64
2023/04/25 00:39:19;;;;;;;0.40;0.40;;;;;;;10.17;95.31;92707.25;515871;28;896;-64
2023/04/25 00:39:35;;;;;;;0.60;0.60;;;;;;;10.19;95.41;92706.66;515940;28;908;-64
2023/04/25 00:39:50;;;;;;;1.00;1.00;;;;;;;10.20;95.24;92706.09;515847;28;760;-65
2023/04/25 00:40:06;;;;;;;1.10;1.07;;;;;;;10.24;95.39;92703.69;515641;28;1083;-64
2023/04/25 00:40:22;;;;;;;0.70;0.70;;;;;;;10.27;95.29;92702.56;515825;28;932;-64
2023/04/25 00:40:37;;;;;;;1.60;1.10;;;;;;;10.28;95.23;92706.78;515830;28;864;-65
2023/04/25 00:40:53;;;;;;;1.70;1.10;;;;;;;10.31;95.19;92713.22;515829;28;856;-64
2023/04/25 00:41:09;;;;;;;0.30;0.30;;;;;;;10.30;94.88;92706.22;515808;28;933;-64
2023/04/25 00:41:26;;;;;;;0.70;0.70;;;;;;;10.25;94.72;92707.16;515806;28;904;-65
2023/04/25 00:41:41;;;;;;;0.60;0.60;;;;;;;10.22;94.54;92703.50;515757;28;788;-64
2023/04/25 00:41:57;;;;;;;0.23;0.23;;;;;;;10.25;94.39;92699.63;513719;28;832;-64
2023/04/25 00:42:13;;;;;;;0.30;0.30;;;;;;;10.25;94.67;92707.16;513744;28;813;-64
2023/04/25 00:42:29;;;;;;;0.52;0.52;;;;;;;10.25;94.48;92707.16;513757;28;1038;-64
2023/04/25 00:42:45;;;;;;;0.65;0.65;;;;;;;10.26;94.82;92698.34;513846;28;878;-64
2023/04/25 00:43:00;;;;;;;0.70;0.70;;;;;;;10.28;94.39;92706.78;513705;28;797;-64
2023/04/25 00:43:16;;;;;;;1.87;0.83;;;;;;;10.28;94.52;92706.03;513849;28;892;-64
2023/04/25 00:43:32;;;;;;;1.80;0.70;;;;;;;10.29;94.60;92705.47;513755;28;860;-64
2023/04/25 00:43:48;;;;;;;0.60;0.60;;;;;;;10.32;94.85;92707.13;512428;28;895;-64
2023/04/25 00:44:04;;;;;;;0.50;0.50;;;;;;;10.35;94.55;92705.25;513727;28;873;-65
2023/04/25 00:44:20;;;;;;;0.22;0.22;;;;;;;10.38;94.60;92704.09;513834;28;827;-64
2023/04/25 00:44:35;;;;;;;0.32;0.32;;;;;;;10.41;94.51;92703.00;513826;28;857;-65
2023/04/25 00:44:52;;;;;;;0.53;0.53;;;;;;;10.45;94.38;92703.31;512345;28;1198;-64
2023/04/25 00:45:10;;;;;;;0.65;0.65;;;;;;;10.47;94.30;92706.97;513691;28;1592;-65
2023/04/25 00:45:29;;;;;;;0.70;0.70;;;;;;;10.47;94.06;92698.69;511786;29;790;-65
2023/04/25 00:45:47;;;;;;;3.03;1.08;;;;;;;10.48;93.79;92702.91;513310;28;1655;-65
2023/04/25 00:46:02;;;;;;;5.40;1.67;;;;;;;10.36;93.75;92682.59;513720;28;804;-64
2023/04/25 00:46:18;;;;;;;1.42;1.23;;;;;;;10.51;93.39;92701.03;513763;28;821;-64
2023/04/25 00:46:33;;;;;;;1.30;1.00;;;;;;;10.53;93.17;92698.44;513658;28;1327;-64
2023/04/25 00:46:49;;;;;;;1.20;1.20;;;;;;;10.51;93.08;92701.78;513414;28;872;-64
2023/04/25 00:47:04;;;;;;;1.48;1.38;;;;;;;10.51;92.77;92699.03;511845;28;824;-64
2023/04/25 00:47:20;;;;;;;1.90;1.77;;;;;;;10.48;92.70;92697.38;512843;28;987;-64
2023/04/25 00:47:36;;;;;;;3.97;2.65;;;;;;;10.48;92.67;92697.38;513771;28;844;-64
2023/04/25 00:47:51;;;;;;;3.50;2.43;;;;;;;10.46;92.53;92699.97;513825;28;810;-64
2023/04/25 00:48:07;;;;;;;3.28;1.92;;;;;;;10.46;92.54;92697.22;513709;28;901;-64
2023/04/25 00:48:22;;;;;;;3.60;1.90;;;;;;;10.49;92.45;92698.13;513840;28;777;-64
2023/04/25 00:48:38;;;;;;;2.20;1.85;;;;;;;10.51;92.44;92695.53;514190;28;829;-64
2023/04/25 00:48:53;;;;;;;4.70;3.50;;;;;;;10.55;92.34;92696.59;515752;28;893;-64
2023/04/25 00:49:13;;;;;;;4.13;3.43;;;;;;;10.55;92.19;92699.34;515904;28;845;-64
2023/04/25 00:49:29;;;;;;;2.95;2.75;;;;;;;10.57;92.07;92702.28;515934;28;885;-64
2023/04/25 00:49:44;;;;;;;3.77;3.43;;;;;;;10.58;92.00;92695.47;515990;28;817;-64
2023/04/25 00:49:59;;;;;;;4.07;2.85;;;;;;;10.61;91.86;92697.06;515866;28;974;-64
2023/04/25 00:50:15;;;;;;;2.97;2.30;;;;;;;10.60;91.90;92698.38;515854;28;876;-64
2023/04/25 00:50:30;;;;;;;1.33;1.30;;;;;;;10.59;92.19;92694.16;515851;28;895;-65
2023/04/25 00:50:51;;;;;;;0.93;0.93;;;;;;;10.62;91.89;92700.56;515839;28;844;-64
2023/04/25 00:51:07;;;;;;;1.80;1.70;;;;;;;10.64;92.00;92698.72;515758;28;823;-64
2023/04/25 00:51:22;;;;;;;0.90;0.90;;;;;;;10.60;91.86;92698.38;515798;28;916;-64
2023/04/25 00:51:38;;;;;;;0.90;0.90;;;;;;;10.54;91.76;92699.94;513762;28;849;-64
2023/04/25 00:51:54;;;;;;;1.40;1.30;;;;;;;10.48;92.09;92686.34;513843;28;819;-64
2023/04/25 00:52:10;;;;;;;1.35;1.25;;;;;;;10.51;92.37;92695.53;513660;28;821;-64
2023/04/25 00:52:25;;;;;;;1.42;1.33;;;;;;;10.52;92.33;92694.97;511857;29;774;-64
2023/04/25 00:52:43;;;;;;;1.70;1.55;;;;;;;10.54;92.36;92689.63;512837;28;1116;-65
2023/04/25 00:52:59;;;;;;;0.68;0.68;;;;;;;10.57;92.42;92693.25;513693;28;956;-64
2023/04/25 00:53:14;;;;;;;0.50;0.50;;;;;;;10.61;92.57;92694.31;511849;29;977;-65
2023/04/25 00:53:31;;;;;;;0.50;0.50;;;;;;;10.62;92.20;92689.53;510572;29;907;-65
2023/04/25 00:53:49;;;;;;;0.60;0.60;;;;;;;10.68;92.18;92697.59;511782;29;1042;-65
2023/04/25 00:54:04;;;;;;;0.40;0.40;;;;;;;10.68;92.21;92693.53;509748;29;1040;-64
2023/04/25 00:54:20;;;;;;;0.40;0.40;;;;;;;10.72;91.87;92681.34;507855;29;887;-65
2023/04/25 00:54:36;;;;;;;0.35;0.35;;;;;;;10.70;92.00;92676.38;509061;29;825;-64
2023/04/25 00:54:51;;;;;;;0.30;0.30;;;;;;;10.76;91.53;92687.19;509870;29;785;-65
2023/04/25 00:55:07;;;;;;;0.47;0.47;;;;;;;10.65;91.59;92675.31;510699;28;1386;-64
2023/04/25 00:55:22;;;;;;;0.68;0.68;;;;;;;10.81;91.23;92694.47;514691;28;854;-64
2023/04/25 00:55:38;;;;;;;0.45;0.45;;;;;;;10.83;91.44;92683.63;515776;28;819;-64
2023/04/25 00:55:54;;;;;;;0.30;0.30;;;;;;;10.80;91.05;92690.28;515861;28;765;-64
2023/04/25 00:56:09;;;;;;;0.20;0.20;;;;;;;10.78;91.18;92685.34;513600;28;862;-64
2023/04/25 00:56:25;;;;;;;0.30;0.30;;;;;;;10.82;91.32;92688.41;512192;28;857;-65
2023/04/25 00:56:41;;;;;;;0.30;0.30;;;;;;;10.84;91.15;92685.06;513809;28;777;-64
2023/04/25 00:56:56;;;;;;;0.17;0.17;;;;;;;10.86;91.27;92683.22;514320;28;909;-64
2023/04/25 00:57:12;;;;;;;0.20;0.20;;;;;;;10.88;90.92;92679.88;515865;28;833;-65
2023/04/25 00:57:28;;;;;;;0.20;0.20;;;;;;;10.92;91.19;92682.94;513662;28;1977;-65
2023/04/25 00:57:43;;;;;;;0.30;0.30;;;;;;;10.94;91.05;92683.13;512389;28;1104;-64
2023/04/25 00:57:59;;;;;;;0.30;0.30;;;;;;;10.98;91.07;92686.22;509757;29;790;-65
2023/04/25 00:58:14;;;;;;;0.60;0.60;;;;;;;11.00;90.93;92683.63;510276;29;785;-65
2023/04/25 00:58:29;;;;;;;0.70;0.70;;;;;;;11.03;90.68;92685.22;509713;29;881;-64
2023/04/25 00:58:45;;;;;;;1.00;0.90;;;;;;;11.05;90.32;92671.56;507877;29;920;-65
2023/04/25 00:59:00;;;;;;;1.00;0.90;;;;;;;11.08;90.14;92684.25;507745;29;899;-64
2023/04/25 00:59:16;;;;;;;0.40;0.40;;;;;;;11.08;90.02;92687.75;505945;29;790;-65
2023/04/25 00:59:33;;;;;;;0.40;0.40;;;;;;;11.08;89.77;92682.22;506298;29;1577;-65
2023/04/25 00:59:51;;;;;;;0.17;0.17;;;;;;;11.06;89.79;92675.81;508416;29;845;-65
2023/04/25 01:00:07;;;;;;;0.40;0.40;;;;;;;11.12;89.55;92688.06;509705;29;836;-65
2023/04/25 01:00:22;;;;;;;0.10;0.10;;;;;;;11.13;89.53;92683.28;510708;29;956;-65
2023/04/25 01:00:38;;;;;;;0.20;0.20;;;;;;;11.15;89.57;92683.44;512574;28;912;-65
2023/04/25 01:00:53;;;;;;;0.35;0.35;;;;;;;11.15;89.23;92678.63;513776;28;903;-65
2023/04/25 01:01:10;;;;;;;0.60;0.60;;;;;;;11.15;89.23;92678.63;513855;28;785;-64
2023/04/25 01:01:25;;;;;;;0.45;0.45;;;;;;;11.17;89.21;92678.06;513813;28;852;-65
2023/04/25 01:01:41;;;;;;;2.40;0.90;;;;;;;11.17;89.05;92675.31;513730;28;837;-65
2023/04/25 01:01:57;;;;;;;2.30;0.75;;;;;;;11.14;88.98;92670.91;511773;29;860;-64
2023/04/25 01:02:12;;;;;;;0.30;0.30;;;;;;;10.98;88.83;92653.78;511678;29;951;-65
2023/04/25 01:02:28;;;;;;;0.20;0.20;;;;;;;11.14;88.54;92674.41;511817;29;794;-65
2023/04/25 01:02:44;;;;;;;0.17;0.17;;;;;;;11.11;88.49;92672.06;509771;29;920;-65
2023/04/25 01:03:00;;;;;;;0.20;0.20;;;;;;;11.07;88.31;92663.44;507873;29;929;-65
2023/04/25 01:03:17;;;;;;;0.17;0.17;;;;;;;11.07;88.22;92668.97;508343;29;881;-65
2023/04/25 01:03:40;;;;;;;0.25;0.25;;;;;;;11.06;88.30;92671.03;509802;28;915;-64
2023/04/25 01:03:56;;;;;;;0.50;0.50;;;;;;;11.05;88.36;92664.03;511603;29;986;-65
2023/04/25 01:04:11;;;;;;;0.40;0.40;;;;;;;11.00;87.99;92662.22;511689;28;801;-64
2023/04/25 01:04:27;;;;;;;0.20;0.20;;;;;;;10.98;88.27;92658.59;511789;28;1135;-65
2023/04/25 01:04:42;;;;;;;0.20;0.20;;;;;;;10.93;88.45;92665.09;513451;28;873;-64
2023/04/25 01:04:58;;;;;;;0.20;0.20;;;;;;;10.92;88.53;92661.59;513902;28;808;-64
2023/04/25 01:05:13;;;;;;;0.10;0.10;;;;;;;10.90;88.33;92655.91;513954;28;761;-65
2023/04/25 01:05:29;;;;;;;0.17;0.17;;;;;;;10.88;88.22;92655.03;513859;28;991;-65
2023/04/25 01:05:45;;;;;;;0.20;0.20;;;;;;;10.87;88.25;92661.84;513938;28;1097;-65
2023/04/25 01:06:01;;;;;;;0.10;0.10;;;;;;;10.85;88.38;92656.88;513897;28;887;-65
2023/04/25 01:06:16;;;;;;;0.60;0.60;;;;;;;10.87;88.69;92648.75;513843;28;935;-65
2023/04/25 01:06:32;;;;;;;0.60;0.60;;;;;;;10.88;88.72;92655.75;513984;28;844;-65
2023/04/25 01:06:48;;;;;;;0.20;0.20;;;;;;;10.90;88.73;92658.69;513946;28;868;-65
2023/04/25 01:07:03;;;;;;;0.22;0.22;;;;;;;10.86;88.43;92650.06;513890;28;880;-64
2023/04/25 01:07:19;;;;;;;0.20;0.20;;;;;;;10.74;88.34;92638.06;513734;28;927;-64
2023/04/25 01:07:35;;;;;;;0.20;0.20;;;;;;;10.79;88.46;92650.16;513801;28;856;-65
2023/04/25 01:07:50;;;;;;;0.20;0.20;;;;;;;10.71;88.69;92649.50;513808;28;766;-64
2023/04/25 01:08:05;;;;;;;0.30;0.30;;;;;;;10.75;88.76;92655.34;513579;28;929;-65
2023/04/25 01:08:23;;;;;;;0.20;0.20;;;;;;;10.72;88.86;92651.69;513762;28;878;-65
2023/04/25 01:08:39;;;;;;;0.10;0.10;;;;;;;10.74;89.00;92645.63;513682;28;855;-65
2023/04/25 01:08:55;;;;;;;0.10;0.10;;;;;;;10.74;88.98;92651.16;513787;28;923;-65
2023/04/25 01:09:10;;;;;;;0.20;0.20;;;;;;;10.73;88.98;92644.88;513776;28;1056;-65
2023/04/25 01:09:25;;;;;;;0.20;0.20;;;;;;;10.66;88.99;92649.19;513910;28;809;-65
2023/04/25 01:09:41;;;;;;;0.20;0.20;;;;;;;10.62;88.93;92642.59;513929;28;920;-64
2023/04/25 01:09:56;;;;;;;0.20;0.20;;;;;;;10.59;89.18;92643.72;513650;28;2331;-64
2023/04/25 01:10:12;;;;;;;0.20;0.20;;;;;;;10.59;89.47;92649.25;513721;28;825;-65
2023/04/25 01:10:27;;;;;;;0.20;0.20;;;;;;;10.61;89.46;92635.63;513730;28;1090;-64
2023/04/25 01:10:43;;;;;;;0.20;0.20;;;;;;;10.61;89.63;92649.44;513669;28;857;-65
2023/04/25 01:10:58;;;;;;;0.20;0.20;;;;;;;10.63;89.68;92641.31;513719;28;827;-65
2023/04/25 01:11:13;;;;;;;0.10;0.10;;;;;;;10.64;89.52;92638.00;513751;28;845;-65
2023/04/25 01:11:29;;;;;;;0.40;0.40;;;;;;;10.68;89.70;92641.06;513751;28;837;-65
2023/04/25 01:11:44;;;;;;;0.40;0.40;;;;;;;10.71;89.55;92641.97;513759;28;868;-64
2023/04/25 01:12:00;;;;;;;0.50;0.50;;;;;;;10.70;89.64;92640.50;513830;28;936;-64
2023/04/25 01:12:16;;;;;;;0.52;0.52;;;;;;;10.65;89.59;92638.72;513844;28;875;-64
2023/04/25 01:12:31;;;;;;;0.40;0.40;;;;;;;10.66;89.79;92640.16;513690;28;1770;-65
2023/04/25 01:12:47;;;;;;;0.40;0.40;;;;;;;10.55;89.84;92621.34;513759;28;805;-64
2023/04/25 01:13:03;;;;;;;0.20;0.20;;;;;;;10.70;89.69;92637.72;513689;28;857;-65
2023/04/25 01:13:18;;;;;;;0.20;0.20;;;;;;;10.72;89.37;92637.19;513772;28;840;-64
2023/04/25 01:13:34;;;;;;;0.20;0.20;;;;;;;10.70;89.61;92629.44;513780;28;848;-64
2023/04/25 01:13:50;;;;;;;0.20;0.20;;;;;;;10.54;89.59;92617.88;513764;28;902;-64
2023/04/25 01:14:06;;;;;;;0.20;0.20;;;;;;;10.58;89.47;92622.97;513684;28;778;-65
2023/04/25 01:14:21;;;;;;;0.10;0.10;;;;;;;10.73;89.33;92646.91;513767;28;829;-64
2023/04/25 01:14:37;;;;;;;0.30;0.30;;;;;;;10.66;89.65;92642.94;513923;28;829;-65
2023/04/25 01:14:52;;;;;;;0.37;0.37;;;;;;;10.64;89.54;92640.00;513885;28;845;-64
2023/04/25 01:15:07;;;;;;;0.50;0.50;;;;;;;10.65;89.85;92641.47;513890;28;1058;-64
2023/04/25 01:15:23;;;;;;;0.40;0.40;;;;;;;10.67;90.06;92644.41;513882;28;885;-65
2023/04/25 01:15:39;;;;;;;0.20;0.20;;;;;;;10.68;90.15;92642.38;513845;28;856;-64
2023/04/25 01:15:54;;;;;;;0.20;0.20;;;;;;;10.72;90.23;92642.69;513932;28;876;-64
2023/04/25 01:16:10;;;;;;;0.30;0.30;;;;;;;10.74;90.40;92637.34;513761;28;956;-64
2023/04/25 01:16:25;;;;;;;0.20;0.20;;;;;;;10.77;90.31;92639.69;513933;28;777;-65
2023/04/25 01:16:42;;;;;;;0.20;0.20;;;;;;;10.75;90.34;92636.03;513834;28;836;-65
2023/04/25 01:16:59;;;;;;;0.20;0.20;;;;;;;10.72;90.43;92634.41;513864;28;1228;-65
2023/04/25 01:17:15;;;;;;;0.10;0.10;;;;;;;10.72;90.52;92637.19;513916;28;1141;-65
2023/04/25 01:17:31;;;;;;;0.10;0.10;;;;;;;10.73;90.51;92642.13;513766;28;1927;-65